Time;durP1;ratioP1;P1;durP2;ratioP2;P2;SDS_P1;SDS_P2;PMS_P1;PMS_P2;Temp;Humidity;BMP_temperature;BMP_pressure;BME280_temperature;BME280_humidity;BME280_pressure;Samples;Min_cycle;Max_cycle;Signal;HPM_P1;HPM_P2
2021/09/13 00:02:15;;;;;;;37.58;7.18;;;;;;;;;;5020381;28;20894;-63
2021/09/13 00:04:42;;;;;;;22.73;5.57;;;;;;;;;;5022844;28;20053;-63
2021/09/13 00:07:09;;;;;;;25.25;6.68;;;;;;;;;;5024111;28;20111;-63
2021/09/13 00:09:35;;;;;;;22.70;4.97;;;;;;;;;;5021870;28;20053;-63
2021/09/13 00:12:02;;;;;;;19.10;3.57;;;;;;;;;;5026825;28;20054;-63
2021/09/13 00:14:28;;;;;;;13.13;3.08;;;;;;;;;;5024280;28;20097;-62
2021/09/13 00:16:55;;;;;;;10.27;2.92;;;;;;;;;;5022756;28;20132;-62
2021/09/13 00:19:23;;;;;;;11.55;2.97;;;;;;;;;;5020216;28;20104;-62
2021/09/13 00:21:49;;;;;;;8.30;2.40;;;;;;;;;;5021785;28;20544;-63
2021/09/13 00:24:16;;;;;;;5.63;1.73;;;;;;;;;;5007388;28;20083;-63
2021/09/13 00:26:42;;;;;;;3.60;1.90;;;;;;;;;;5024270;28;20077;-63
2021/09/13 00:29:09;;;;;;;3.13;1.30;;;;;;;;;;5018132;28;20058;-63
2021/09/13 00:31:37;;;;;;;4.50;1.50;;;;;;;;;;5019131;28;20136;-63
2021/09/13 00:34:04;;;;;;;2.78;1.30;;;;;;;;;;5021125;28;20057;-63
2021/09/13 00:36:30;;;;;;;5.60;1.30;;;;;;;;;;5021518;28;20099;-63
2021/09/13 00:38:57;;;;;;;2.70;1.08;;;;;;;;;;5021528;28;20721;-63
2021/09/13 00:41:23;;;;;;;5.75;1.48;;;;;;;;;;5017694;28;20489;-63
2021/09/13 00:43:52;;;;;;;4.53;1.35;;;;;;;;;;5020745;28;20413;-63
2021/09/13 00:46:18;;;;;;;3.67;1.40;;;;;;;;;;5020415;28;20136;-63
2021/09/13 00:48:45;;;;;;;2.47;0.95;;;;;;;;;;5021611;28;20046;-63
2021/09/13 00:51:12;;;;;;;3.10;1.30;;;;;;;;;;5022171;28;20049;-63
2021/09/13 00:53:38;;;;;;;5.82;1.20;;;;;;;;;;5022442;28;20136;-63
2021/09/13 00:56:06;;;;;;;3.90;0.93;;;;;;;;;;5020447;28;20053;-63
2021/09/13 00:58:35;;;;;;;3.45;1.10;;;;;;;;;;5025317;28;20176;-63
2021/09/13 01:01:01;;;;;;;2.75;1.02;;;;;;;;;;5018592;28;20080;-63
2021/09/13 01:03:28;;;;;;;3.25;1.02;;;;;;;;;;5023476;28;20108;-63
2021/09/13 01:05:55;;;;;;;1.83;1.20;;;;;;;;;;5019957;28;20487;-63
2021/09/13 01:08:22;;;;;;;1.63;1.20;;;;;;;;;;5023302;28;20076;-63
2021/09/13 01:10:50;;;;;;;4.47;1.08;;;;;;;;;;5024531;28;20583;-63
2021/09/13 01:13:16;;;;;;;1.20;0.98;;;;;;;;;;5024385;28;20084;-63
2021/09/13 01:15:42;;;;;;;2.85;1.00;;;;;;;;;;5016353;28;20081;-63
2021/09/13 01:18:09;;;;;;;3.20;1.00;;;;;;;;;;5019244;28;20056;-62
2021/09/13 01:20:39;;;;;;;6.72;1.27;;;;;;;;;;5020555;28;20137;-63
2021/09/13 01:23:07;;;;;;;2.90;1.30;;;;;;;;;;5020465;28;20100;-62
2021/09/13 01:25:34;;;;;;;3.40;1.00;;;;;;;;;;5023736;28;20136;-62
2021/09/13 01:28:01;;;;;;;4.07;1.08;;;;;;;;;;5023057;28;20050;-62
2021/09/13 01:30:28;;;;;;;5.80;1.25;;;;;;;;;;5023997;28;20136;-62
2021/09/13 01:32:55;;;;;;;3.67;0.93;;;;;;;;;;5022506;28;20103;-62
2021/09/13 01:35:22;;;;;;;4.45;1.33;;;;;;;;;;5024428;28;20099;-62
2021/09/13 01:37:48;;;;;;;2.58;1.38;;;;;;;;;;5022971;28;20140;-62
2021/09/13 01:40:15;;;;;;;2.92;1.23;;;;;;;;;;5021230;28;20451;-62
2021/09/13 01:42:42;;;;;;;3.55;2.70;;;;;;;;;;5021404;28;20092;-62
2021/09/13 01:45:09;;;;;;;2.47;1.23;;;;;;;;;;5016722;28;20080;-62
2021/09/13 01:47:36;;;;;;;3.90;1.50;;;;;;;;;;5018836;28;20053;-62
2021/09/13 01:50:02;;;;;;;3.45;1.50;;;;;;;;;;5021122;28;20084;-62
2021/09/13 01:52:29;;;;;;;4.57;1.27;;;;;;;;;;5017972;28;20539;-62
2021/09/13 01:54:55;;;;;;;2.63;1.50;;;;;;;;;;5024062;28;20053;-62
2021/09/13 01:57:22;;;;;;;3.30;1.65;;;;;;;;;;5023544;28;20037;-62
2021/09/13 01:59:51;;;;;;;6.18;1.88;;;;;;;;;;5025219;28;20049;-62
2021/09/13 02:02:18;;;;;;;6.07;1.70;;;;;;;;;;5027783;28;20081;-62
2021/09/13 02:04:45;;;;;;;6.07;1.40;;;;;;;;;;5015364;28;20052;-62
2021/09/13 02:07:11;;;;;;;3.20;1.42;;;;;;;;;;5023271;28;20179;-63
2021/09/13 02:09:38;;;;;;;5.93;1.60;;;;;;;;;;5021364;28;20489;-63
2021/09/13 02:12:05;;;;;;;3.10;1.48;;;;;;;;;;5023870;28;20500;-63
2021/09/13 02:14:31;;;;;;;3.88;1.58;;;;;;;;;;5026336;28;20130;-63
2021/09/13 02:16:57;;;;;;;4.45;1.60;;;;;;;;;;5024522;28;20443;-63
2021/09/13 02:19:24;;;;;;;7.50;1.70;;;;;;;;;;5023657;28;20065;-63
2021/09/13 02:21:50;;;;;;;3.33;1.40;;;;;;;;;;5022954;28;20049;-63
2021/09/13 02:24:17;;;;;;;2.97;1.75;;;;;;;;;;5028271;28;20552;-63
2021/09/13 02:26:43;;;;;;;4.90;1.50;;;;;;;;;;5022639;28;20069;-63
2021/09/13 02:29:10;;;;;;;2.60;1.63;;;;;;;;;;5024612;28;20133;-63
2021/09/13 02:31:36;;;;;;;3.35;1.38;;;;;;;;;;5028335;28;20056;-63
2021/09/13 02:34:03;;;;;;;5.40;1.73;;;;;;;;;;5022056;28;20096;-63
2021/09/13 02:36:30;;;;;;;3.97;1.60;;;;;;;;;;5027252;28;20077;-63
2021/09/13 02:38:56;;;;;;;7.43;1.95;;;;;;;;;;5024325;28;20133;-63
2021/09/13 02:41:23;;;;;;;3.57;1.50;;;;;;;;;;5023873;28;20547;-63
2021/09/13 02:43:49;;;;;;;4.07;1.67;;;;;;;;;;5025524;28;20340;-63
2021/09/13 02:46:18;;;;;;;2.08;1.55;;;;;;;;;;5026137;28;20100;-61
2021/09/13 02:48:45;;;;;;;5.97;1.60;;;;;;;;;;5028441;28;20115;-62
2021/09/13 02:51:12;;;;;;;9.13;2.57;;;;;;;;;;5029279;28;20053;-61
2021/09/13 02:53:39;;;;;;;3.20;1.30;;;;;;;;;;5026741;28;20509;-62
2021/09/13 02:56:06;;;;;;;3.90;1.73;;;;;;;;;;5027361;28;20187;-62
2021/09/13 02:58:32;;;;;;;13.13;2.67;;;;;;;;;;5027805;28;20124;-62
2021/09/13 03:00:59;;;;;;;8.90;1.55;;;;;;;;;;5029279;28;20146;-62
2021/09/13 03:03:26;;;;;;;5.47;1.40;;;;;;;;;;5024989;28;20050;-62
2021/09/13 03:05:52;;;;;;;4.43;1.67;;;;;;;;;;5024257;28;20053;-62
2021/09/13 03:08:19;;;;;;;2.15;1.40;;;;;;;;;;5020044;28;20052;-62
2021/09/13 03:10:45;;;;;;;4.03;1.67;;;;;;;;;;5022876;28;20108;-62
2021/09/13 03:13:12;;;;;;;3.00;1.65;;;;;;;;;;5025425;28;20135;-62
2021/09/13 03:15:39;;;;;;;2.33;1.48;;;;;;;;;;5027753;28;20074;-62
2021/09/13 03:18:05;;;;;;;3.70;1.30;;;;;;;;;;5025419;28;20473;-62
2021/09/13 03:20:32;;;;;;;1.35;1.02;;;;;;;;;;5024007;28;20306;-62
2021/09/13 03:22:59;;;;;;;1.77;1.30;;;;;;;;;;5021830;28;20084;-62
2021/09/13 03:25:26;;;;;;;5.55;1.17;;;;;;;;;;5016956;28;20053;-62
2021/09/13 03:27:53;;;;;;;6.97;1.20;;;;;;;;;;5026566;28;20084;-62
2021/09/13 03:30:20;;;;;;;1.35;1.00;;;;;;;;;;5023510;28;20128;-62
2021/09/13 03:32:46;;;;;;;2.23;0.83;;;;;;;;;;5021525;28;20092;-61
2021/09/13 03:35:12;;;;;;;2.38;1.05;;;;;;;;;;5025101;28;20065;-62
2021/09/13 03:37:39;;;;;;;0.52;0.52;;;;;;;;;;5024877;28;20164;-61
2021/09/13 03:40:07;;;;;;;2.22;1.08;;;;;;;;;;5024065;28;20474;-61
2021/09/13 03:42:33;;;;;;;5.45;1.00;;;;;;;;;;5020015;28;20156;-61
2021/09/13 03:45:00;;;;;;;1.88;0.70;;;;;;;;;;5023617;28;20045;-61
2021/09/13 03:47:27;;;;;;;6.53;0.93;;;;;;;;;;5022182;28;20085;-62
2021/09/13 03:49:53;;;;;;;2.85;0.85;;;;;;;;;;5023732;28;20081;-61
2021/09/13 03:52:20;;;;;;;0.95;0.70;;;;;;;;;;5024482;28;20058;-61
2021/09/13 03:54:47;;;;;;;1.55;0.95;;;;;;;;;;5028255;28;20128;-61
2021/09/13 03:57:13;;;;;;;3.72;1.05;;;;;;;;;;5020276;28;20136;-61
2021/09/13 03:59:39;;;;;;;1.42;0.60;;;;;;;;;;5019811;28;20056;-61
2021/09/13 04:02:06;;;;;;;2.27;0.97;;;;;;;;;;5020628;28;20057;-62
2021/09/13 04:04:34;;;;;;;12.60;1.65;;;;;;;;;;5024086;28;20280;-62
2021/09/13 04:11:57;;;;;;;1.08;0.75;;;;;;;;;;5017701;28;20127;-62
2021/09/13 04:14:25;;;;;;;0.98;0.80;;;;;;;;;;5023989;28;20117;-62
2021/09/13 04:16:51;;;;;;;;;;;;;;;;;;5022471;28;20128;-62
2021/09/13 04:19:18;;;;;;;6.47;1.05;;;;;;;;;;5024137;28;19973;-61
2021/09/13 04:21:44;;;;;;;3.60;0.87;;;;;;;;;;5021435;28;20400;-61
2021/09/13 04:24:11;;;;;;;8.13;1.08;;;;;;;;;;5018042;28;20383;-61
2021/09/13 04:26:38;;;;;;;2.63;0.83;;;;;;;;;;5024114;28;20049;-61
2021/09/13 04:29:04;;;;;;;2.33;1.08;;;;;;;;;;5024053;28;20073;-61
2021/09/13 04:31:32;;;;;;;2.28;0.90;;;;;;;;;;5024673;28;20061;-61
2021/09/13 04:33:58;;;;;;;1.88;0.60;;;;;;;;;;5025920;28;20091;-61
2021/09/13 04:36:25;;;;;;;1.45;0.93;;;;;;;;;;5022344;28;20050;-61
2021/09/13 04:38:51;;;;;;;2.28;0.77;;;;;;;;;;5024115;28;20047;-61
2021/09/13 04:41:18;;;;;;;3.88;0.90;;;;;;;;;;5019415;28;20131;-61
2021/09/13 04:43:44;;;;;;;2.60;0.90;;;;;;;;;;5025200;28;20087;-61
2021/09/13 04:46:12;;;;;;;1.33;0.90;;;;;;;;;;5019086;28;20099;-61
2021/09/13 04:48:38;;;;;;;3.85;0.85;;;;;;;;;;5018672;28;20136;-61
2021/09/13 04:51:05;;;;;;;2.38;1.10;;;;;;;;;;5019911;28;20125;-60
2021/09/13 04:53:32;;;;;;;1.38;0.82;;;;;;;;;;5019498;28;20068;-61
2021/09/13 04:55:58;;;;;;;0.77;0.70;;;;;;;;;;5022806;28;20077;-61
2021/09/13 04:58:24;;;;;;;1.90;0.82;;;;;;;;;;5022627;28;20057;-61
2021/09/13 05:00:51;;;;;;;7.43;1.08;;;;;;;;;;5018796;28;20132;-61
2021/09/13 05:03:17;;;;;;;1.83;0.80;;;;;;;;;;5020613;28;20125;-61
2021/09/13 05:05:44;;;;;;;2.08;1.17;;;;;;;;;;5021951;28;20103;-61
2021/09/13 05:08:11;;;;;;;3.83;1.03;;;;;;;;;;5021084;28;20129;-61
2021/09/13 05:10:37;;;;;;;5.28;1.15;;;;;;;;;;5021985;28;20089;-61
2021/09/13 05:13:05;;;;;;;4.13;1.13;;;;;;;;;;5025053;28;20471;-61
2021/09/13 05:15:33;;;;;;;4.88;1.20;;;;;;;;;;5018085;28;20046;-61
2021/09/13 05:17:59;;;;;;;2.53;1.05;;;;;;;;;;5023333;28;20133;-61
2021/09/13 05:20:25;;;;;;;6.90;1.20;;;;;;;;;;5017411;28;20133;-61
2021/09/13 05:22:52;;;;;;;2.65;0.77;;;;;;;;;;5022249;28;20088;-61
2021/09/13 05:25:19;;;;;;;1.17;0.90;;;;;;;;;;5020630;28;20136;-61
2021/09/13 05:27:46;;;;;;;;;;;;;;;;;;5025829;28;20464;-61
2021/09/13 05:30:14;;;;;;;5.07;1.38;;;;;;;;;;5023772;28;20012;-60
2021/09/13 05:32:41;;;;;;;1.00;0.80;;;;;;;;;;5031668;28;20089;-61
2021/09/13 05:35:08;;;;;;;3.90;1.00;;;;;;;;;;5029497;28;20592;-61
2021/09/13 05:37:35;;;;;;;3.30;1.10;;;;;;;;;;5030639;28;20084;-61
2021/09/13 05:40:04;;;;;;;2.05;1.00;;;;;;;;;;5022868;28;20128;-60
2021/09/13 05:42:30;;;;;;;6.28;1.17;;;;;;;;;;5016619;28;20498;-60
2021/09/13 05:44:57;;;;;;;4.20;1.23;;;;;;;;;;5023789;28;20074;-60
2021/09/13 05:47:24;;;;;;;3.55;1.35;;;;;;;;;;5018380;28;20672;-60
2021/09/13 05:49:50;;;;;;;3.38;1.30;;;;;;;;;;5021663;28;20054;-60
2021/09/13 05:52:18;;;;;;;4.68;1.15;;;;;;;;;;5029575;28;20289;-60
2021/09/13 05:54:44;;;;;;;1.75;1.02;;;;;;;;;;5022990;28;20536;-61
2021/09/13 05:57:10;;;;;;;2.65;1.25;;;;;;;;;;5021485;28;20053;-60
2021/09/13 05:59:37;;;;;;;6.20;1.40;;;;;;;;;;5016183;28;20042;-61
2021/09/13 06:02:03;;;;;;;5.10;1.20;;;;;;;;;;5028037;28;20085;-60
2021/09/13 06:04:32;;;;;;;3.08;1.60;;;;;;;;;;5021322;28;20045;-60
2021/09/13 06:06:59;;;;;;;5.25;1.48;;;;;;;;;;5018801;28;20071;-60
2021/09/13 06:09:26;;;;;;;5.07;1.90;;;;;;;;;;5019763;28;20080;-61
2021/09/13 06:11:52;;;;;;;5.22;1.92;;;;;;;;;;5020468;28;20083;-60
2021/09/13 06:14:23;;;;;;;4.55;1.60;;;;;;;;;;5015907;28;20133;-61
2021/09/13 06:16:49;;;;;;;3.55;1.85;;;;;;;;;;5022663;28;20076;-61
2021/09/13 06:19:16;;;;;;;3.47;1.90;;;;;;;;;;5018838;28;20053;-61
2021/09/13 06:21:44;;;;;;;3.17;1.77;;;;;;;;;;5026732;28;20076;-60
2021/09/13 06:24:10;;;;;;;3.17;1.50;;;;;;;;;;5025443;28;20137;-60
2021/09/13 06:26:36;;;;;;;3.92;1.40;;;;;;;;;;5017375;28;20562;-60
2021/09/13 06:29:05;;;;;;;3.65;1.75;;;;;;;;;;5020943;28;20568;-60
2021/09/13 06:31:31;;;;;;;9.38;1.75;;;;;;;;;;5024236;28;20077;-60
2021/09/13 06:33:58;;;;;;;5.60;2.07;;;;;;;;;;5021802;28;20072;-60
2021/09/13 06:36:26;;;;;;;3.60;1.80;;;;;;;;;;5022743;28;20128;-60
2021/09/13 06:38:53;;;;;;;7.13;1.52;;;;;;;;;;5022501;28;20077;-62
2021/09/13 06:41:19;;;;;;;5.22;1.83;;;;;;;;;;5021808;28;20080;-63
2021/09/13 06:43:47;;;;;;;4.88;2.00;;;;;;;;;;5018634;28;20129;-63
2021/09/13 06:46:22;;;;;;;3.70;1.80;;;;;;;;;;5028579;28;20132;-63
2021/09/13 06:48:50;;;;;;;5.97;2.00;;;;;;;;;;5023825;28;20048;-62
2021/09/13 06:51:18;;;;;;;3.60;1.80;;;;;;;;;;5026347;28;20084;-63
2021/09/13 06:53:44;;;;;;;7.50;1.75;;;;;;;;;;5029692;28;20478;-62
2021/09/13 06:56:12;;;;;;;4.57;1.90;;;;;;;;;;5019712;28;20054;-63
2021/09/13 06:58:39;;;;;;;2.20;1.35;;;;;;;;;;5025096;28;20092;-62
2021/09/13 07:01:05;;;;;;;5.83;1.97;;;;;;;;;;5024182;28;20556;-63
2021/09/13 07:03:33;;;;;;;4.57;1.90;;;;;;;;;;5032518;28;20489;-63
2021/09/13 07:06:00;;;;;;;1.73;1.27;;;;;;;;;;5010336;28;20061;-63
2021/09/13 07:08:26;;;;;;;3.75;1.60;;;;;;;;;;5026135;28;20575;-63
2021/09/13 07:10:54;;;;;;;4.20;1.70;;;;;;;;;;5023921;28;20136;-62
2021/09/13 07:13:20;;;;;;;1.70;1.10;;;;;;;;;;5026680;28;20085;-63
2021/09/13 07:15:47;;;;;;;6.55;1.50;;;;;;;;;;5027125;28;20125;-62
2021/09/13 07:18:14;;;;;;;1.80;1.00;;;;;;;;;;5025354;28;20390;-62
2021/09/13 07:20:40;;;;;;;2.83;1.45;;;;;;;;;;5024112;28;20069;-62
2021/09/13 07:23:07;;;;;;;3.28;1.27;;;;;;;;;;5024898;28;20089;-63
2021/09/13 07:25:34;;;;;;;3.67;1.27;;;;;;;;;;5018779;28;20046;-63
2021/09/13 07:28:00;;;;;;;3.30;1.38;;;;;;;;;;5023873;28;20093;-62
2021/09/13 07:30:27;;;;;;;4.90;1.60;;;;;;;;;;5026925;28;20139;-62
2021/09/13 07:32:54;;;;;;;5.05;1.27;;;;;;;;;;5019386;28;20552;-62
2021/09/13 07:35:20;;;;;;;3.67;1.33;;;;;;;;;;5023961;28;20133;-63
2021/09/13 07:37:49;;;;;;;2.00;1.05;;;;;;;;;;5030300;28;20046;-62
2021/09/13 07:40:16;;;;;;;4.70;1.42;;;;;;;;;;5022759;28;20057;-62
2021/09/13 07:42:46;;;;;;;3.90;1.23;;;;;;;;;;5025468;28;20137;-62
2021/09/13 07:45:12;;;;;;;2.88;1.30;;;;;;;;;;5025579;28;20049;-62
2021/09/13 07:47:39;;;;;;;2.60;1.10;;;;;;;;;;5026753;28;20075;-62
2021/09/13 07:50:06;;;;;;;7.82;1.58;;;;;;;;;;5027658;28;20085;-62
2021/09/13 07:52:32;;;;;;;2.37;1.07;;;;;;;;;;5026499;28;20144;-62
2021/09/13 07:54:59;;;;;;;1.93;1.03;;;;;;;;;;5024162;28;20324;-60
2021/09/13 07:57:25;;;;;;;2.05;1.15;;;;;;;;;;5026494;28;20371;-60
2021/09/13 07:59:52;;;;;;;6.03;1.23;;;;;;;;;;5024822;28;20134;-60
2021/09/13 08:02:19;;;;;;;4.43;1.30;;;;;;;;;;5023112;28;20096;-60
2021/09/13 08:04:46;;;;;;;3.15;1.50;;;;;;;;;;5020971;28;20107;-60
2021/09/13 08:07:12;;;;;;;1.45;1.02;;;;;;;;;;5026518;28;20089;-60
2021/09/13 08:09:39;;;;;;;2.72;1.20;;;;;;;;;;5024259;28;20769;-59
2021/09/13 08:12:05;;;;;;;2.03;1.42;;;;;;;;;;5024969;28;20100;-59
2021/09/13 08:14:32;;;;;;;1.60;1.03;;;;;;;;;;5028141;28;20463;-60
2021/09/13 08:16:59;;;;;;;4.25;1.67;;;;;;;;;;5023472;28;20049;-60
2021/09/13 08:19:25;;;;;;;3.63;1.38;;;;;;;;;;5020510;28;20573;-59
2021/09/13 08:21:52;;;;;;;2.67;1.33;;;;;;;;;;5025349;28;20480;-60
2021/09/13 08:24:19;;;;;;;2.60;1.52;;;;;;;;;;5028646;28;20085;-60
2021/09/13 08:26:45;;;;;;;3.25;1.02;;;;;;;;;;5026131;28;20241;-59
2021/09/13 08:29:15;;;;;;;2.85;1.02;;;;;;;;;;5026121;28;20115;-60
2021/09/13 08:31:42;;;;;;;3.00;1.27;;;;;;;;;;5025980;28;20096;-60
2021/09/13 08:34:09;;;;;;;2.47;1.20;;;;;;;;;;5022096;28;20054;-60
2021/09/13 08:36:35;;;;;;;1.38;0.93;;;;;;;;;;5021324;28;20085;-60
2021/09/13 08:39:03;;;;;;;1.48;1.10;;;;;;;;;;5021774;28;20140;-60
2021/09/13 08:41:32;;;;;;;1.70;0.90;;;;;;;;;;5023701;28;20077;-60
2021/09/13 08:43:58;;;;;;;1.75;0.80;;;;;;;;;;5020015;28;20087;-60
2021/09/13 08:46:35;;;;;;;2.88;1.10;;;;;;;;;;5021936;28;20045;-60
2021/09/13 08:49:06;;;;;;;2.50;1.25;;;;;;;;;;5021222;28;20054;-60
2021/09/13 08:51:34;;;;;;;3.55;1.20;;;;;;;;;;5024202;28;20133;-60
2021/09/13 08:54:12;;;;;;;3.78;1.13;;;;;;;;;;5008367;28;20140;-60
2021/09/13 08:59:08;;;;;;;2.65;1.05;;;;;;;;;;5017844;28;20089;-60
2021/09/13 09:01:35;;;;;;;2.47;1.05;;;;;;;;;;5022517;28;20041;-60
2021/09/13 09:04:03;;;;;;;3.60;1.42;;;;;;;;;;5019694;28;20055;-60
2021/09/13 09:06:30;;;;;;;;;;;;;;;;;;5027132;28;20073;-60
2021/09/13 09:08:57;;;;;;;3.22;1.40;;;;;;;;;;5030360;28;19961;-60
2021/09/13 09:11:24;;;;;;;2.53;1.23;;;;;;;;;;5026827;28;20553;-60
2021/09/13 09:13:50;;;;;;;2.97;0.90;;;;;;;;;;5027720;28;20536;-60
2021/09/13 09:16:17;;;;;;;1.80;0.98;;;;;;;;;;5021002;28;20085;-60
2021/09/13 09:18:45;;;;;;;2.15;0.90;;;;;;;;;;5027165;28;20523;-60
2021/09/13 09:21:12;;;;;;;1.77;0.90;;;;;;;;;;5023509;28;20084;-62
2021/09/13 09:23:58;;;;;;;1.33;0.80;;;;;;;;;;5025466;28;20084;-62
2021/09/13 09:26:25;;;;;;;3.63;1.30;;;;;;;;;;5019303;28;20140;-62
2021/09/13 09:28:52;;;;;;;2.03;0.97;;;;;;;;;;5022294;28;20073;-62
2021/09/13 09:31:34;;;;;;;2.03;1.10;;;;;;;;;;5019430;28;20331;-62
2021/09/13 09:34:15;;;;;;;1.50;0.88;;;;;;;;;;5023225;28;20136;-63
2021/09/13 09:36:42;;;;;;;1.13;0.80;;;;;;;;;;5024407;28;20089;-63
2021/09/13 09:39:10;;;;;;;2.08;1.00;;;;;;;;;;5018792;28;20132;-62
2021/09/13 09:41:46;;;;;;;1.23;0.80;;;;;;;;;;5019625;28;20056;-62
2021/09/13 09:44:20;;;;;;;2.13;0.80;;;;;;;;;;5020299;28;20137;-61
2021/09/13 09:46:47;;;;;;;7.60;1.25;;;;;;;;;;5018389;28;20133;-61
2021/09/13 09:49:17;;;;;;;1.80;0.93;;;;;;;;;;5022782;28;20493;-61
2021/09/13 09:51:50;;;;;;;2.83;1.08;;;;;;;;;;5023567;28;20711;-61
2021/09/13 09:54:17;;;;;;;1.25;0.88;;;;;;;;;;5011695;28;20080;-61
2021/09/13 09:56:45;;;;;;;2.88;0.95;;;;;;;;;;5022790;28;20520;-61
2021/09/13 09:59:13;;;;;;;3.22;1.00;;;;;;;;;;5020473;28;20131;-61
2021/09/13 10:01:40;;;;;;;1.42;1.00;;;;;;;;;;5020553;28;20073;-61
2021/09/13 10:04:18;;;;;;;2.13;0.80;;;;;;;;;;5019723;28;20049;-61
2021/09/13 10:06:47;;;;;;;1.85;0.80;;;;;;;;;;5020463;28;20058;-61
2021/09/13 10:09:13;;;;;;;1.08;0.65;;;;;;;;;;5029647;28;20088;-62
2021/09/13 10:11:40;;;;;;;2.17;1.00;;;;;;;;;;5020922;28;20470;-61
2021/09/13 10:14:11;;;;;;;2.85;1.00;;;;;;;;;;5022710;28;20133;-61
2021/09/13 10:16:38;;;;;;;1.60;0.93;;;;;;;;;;5025605;28;20088;-61
2021/09/13 10:19:05;;;;;;;1.52;1.10;;;;;;;;;;5020768;28;20547;-61
2021/09/13 10:21:32;;;;;;;1.50;1.10;;;;;;;;;;5020657;28;20057;-61
2021/09/13 10:24:00;;;;;;;3.83;1.10;;;;;;;;;;5016492;28;20510;-61
2021/09/13 10:26:26;;;;;;;2.42;1.00;;;;;;;;;;5024989;28;20528;-61
2021/09/13 10:28:59;;;;;;;1.88;1.30;;;;;;;;;;5027391;28;20121;-61
2021/09/13 10:31:41;;;;;;;6.13;1.20;;;;;;;;;;5021462;28;20119;-61
2021/09/13 10:34:15;;;;;;;2.92;1.50;;;;;;;;;;5019896;28;20497;-61
2021/09/13 10:37:00;;;;;;;4.45;1.63;;;;;;;;;;5031181;28;20081;-61
2021/09/13 10:39:50;;;;;;;2.15;1.33;;;;;;;;;;5025637;28;20056;-61
2021/09/13 10:42:30;;;;;;;3.65;1.13;;;;;;;;;;5029294;28;20084;-61
2021/09/13 10:45:04;;;;;;;2.28;1.10;;;;;;;;;;5029592;28;20049;-61
2021/09/13 10:47:30;;;;;;;3.53;1.20;;;;;;;;;;5018488;28;20088;-61
2021/09/13 10:50:16;;;;;;;1.75;1.15;;;;;;;;;;5029677;28;20150;-61
2021/09/13 10:52:43;;;;;;;2.40;0.95;;;;;;;;;;5022724;28;20482;-61
2021/09/13 10:55:09;;;;;;;3.33;1.15;;;;;;;;;;5028304;28;20089;-61
2021/09/13 10:57:54;;;;;;;4.07;1.65;;;;;;;;;;5026346;28;20133;-61
2021/09/13 11:00:40;;;;;;;2.08;0.88;;;;;;;;;;5022606;28;20081;-61
2021/09/13 11:03:22;;;;;;;3.35;1.33;;;;;;;;;;5026288;28;20053;-62
2021/09/13 11:06:11;;;;;;;1.80;0.98;;;;;;;;;;5029058;28;20494;-62
2021/09/13 11:08:38;;;;;;;1.35;1.10;;;;;;;;;;5033073;28;20409;-61
2021/09/13 11:11:31;;;;;;;3.13;1.05;;;;;;;;;;5016051;28;20120;-61
2021/09/13 11:13:59;;;;;;;1.85;0.90;;;;;;;;;;5018937;28;20053;-61
2021/09/13 11:16:26;;;;;;;2.22;1.33;;;;;;;;;;5027073;28;20132;-61
2021/09/13 11:18:56;;;;;;;3.00;1.00;;;;;;;;;;5025992;28;20053;-61
2021/09/13 11:21:22;;;;;;;2.08;1.30;;;;;;;;;;5025346;28;20593;-61
2021/09/13 11:23:49;;;;;;;1.03;0.90;;;;;;;;;;5026833;28;20053;-61
2021/09/13 11:26:16;;;;;;;3.50;1.13;;;;;;;;;;5026101;28;20085;-62
2021/09/13 11:28:59;;;;;;;2.42;1.10;;;;;;;;;;5030240;28;20401;-61
2021/09/13 11:31:33;;;;;;;3.30;1.10;;;;;;;;;;5023405;28;20132;-61
2021/09/13 11:34:00;;;;;;;1.67;1.10;;;;;;;;;;5025892;28;20152;-61
2021/09/13 11:36:28;;;;;;;2.38;1.33;;;;;;;;;;5022390;28;20053;-62
2021/09/13 11:38:59;;;;;;;1.92;0.82;;;;;;;;;;5025874;28;20165;-62
2021/09/13 11:41:26;;;;;;;2.25;1.00;;;;;;;;;;5028103;28;20056;-62
2021/09/13 11:43:56;;;;;;;3.25;0.90;;;;;;;;;;5023919;28;20158;-62
2021/09/13 11:46:23;;;;;;;1.48;0.73;;;;;;;;;;5020665;28;20137;-62
2021/09/13 11:48:49;;;;;;;1.63;1.05;;;;;;;;;;5023743;28;20045;-61
2021/09/13 11:51:16;;;;;;;2.00;0.93;;;;;;;;;;5019732;28;20214;-62
2021/09/13 11:53:43;;;;;;;1.48;0.93;;;;;;;;;;5022785;28;20108;-61
2021/09/13 11:56:11;;;;;;;1.67;0.70;;;;;;;;;;5021855;28;20128;-62
2021/09/13 11:58:44;;;;;;;1.17;0.80;;;;;;;;;;5028430;28;20136;-62
2021/09/13 12:01:19;;;;;;;2.15;0.80;;;;;;;;;;5024744;28;20081;-61
2021/09/13 12:03:47;;;;;;;1.27;0.80;;;;;;;;;;5021388;28;20049;-61
2021/09/13 12:06:19;;;;;;;1.52;1.10;;;;;;;;;;5028122;28;20085;-61
2021/09/13 12:08:45;;;;;;;1.40;1.30;;;;;;;;;;5025397;28;20056;-61
2021/09/13 12:11:13;;;;;;;1.48;1.10;;;;;;;;;;5026238;28;20069;-62
2021/09/13 12:13:42;;;;;;;2.72;0.80;;;;;;;;;;5018934;28;20140;-61
2021/09/13 12:16:21;;;;;;;1.70;0.98;;;;;;;;;;5023400;28;20410;-62
2021/09/13 12:18:48;;;;;;;1.45;0.70;;;;;;;;;;5021771;28;20085;-61
2021/09/13 12:21:17;;;;;;;1.58;0.95;;;;;;;;;;5026371;28;20129;-61
2021/09/13 12:23:53;;;;;;;2.47;0.68;;;;;;;;;;5024102;28;20533;-62
2021/09/13 12:26:23;;;;;;;1.48;0.73;;;;;;;;;;5018958;28;20054;-62
2021/09/13 12:28:50;;;;;;;1.40;0.77;;;;;;;;;;5025009;28;20547;-61
2021/09/13 12:31:24;;;;;;;1.75;0.60;;;;;;;;;;5021696;28;20133;-62
2021/09/13 12:33:52;;;;;;;1.00;0.88;;;;;;;;;;5023714;28;20060;-61
2021/09/13 12:36:20;;;;;;;0.93;0.70;;;;;;;;;;5023759;28;20141;-61
2021/09/13 12:38:47;;;;;;;0.98;0.68;;;;;;;;;;5022871;28;20084;-62
2021/09/13 12:41:14;;;;;;;1.50;0.40;;;;;;;;;;5023425;28;20057;-61
2021/09/13 12:43:44;;;;;;;1.55;0.93;;;;;;;;;;5027408;28;20473;-62
2021/09/13 12:46:12;;;;;;;2.67;0.40;;;;;;;;;;5023572;28;20100;-63
2021/09/13 12:48:40;;;;;;;5.18;0.85;;;;;;;;;;5023548;28;20052;-62
2021/09/13 12:51:20;;;;;;;0.77;0.52;;;;;;;;;;5024337;28;20123;-63
2021/09/13 12:53:59;;;;;;;1.73;0.95;;;;;;;;;;5013633;28;20092;-62
2021/09/13 12:56:26;;;;;;;0.70;0.50;;;;;;;;;;5024280;28;20046;-62
2021/09/13 12:59:09;;;;;;;0.80;0.63;;;;;;;;;;5023582;28;20079;-62
2021/09/13 13:01:37;;;;;;;2.15;0.57;;;;;;;;;;5023804;28;20488;-63
2021/09/13 13:04:05;;;;;;;0.70;0.50;;;;;;;;;;5025938;28;20049;-63
2021/09/13 13:06:31;;;;;;;;;;;;;;;;;;5024597;28;20054;-63
2021/09/13 13:09:00;;;;;;;0.63;0.40;;;;;;;;;;5021885;28;19975;-62
2021/09/13 13:11:27;;;;;;;0.77;0.50;;;;;;;;;;5022741;28;20058;-63
2021/09/13 13:13:54;;;;;;;0.98;0.40;;;;;;;;;;5022535;28;20137;-63
2021/09/13 13:16:30;;;;;;;0.55;0.35;;;;;;;;;;5024783;28;20053;-62
2021/09/13 13:18:57;;;;;;;1.00;0.60;;;;;;;;;;5026306;28;20057;-62
2021/09/13 13:21:23;;;;;;;0.68;0.50;;;;;;;;;;5022495;28;20446;-62
2021/09/13 13:23:50;;;;;;;0.38;0.38;;;;;;;;;;5016372;28;20467;-63
2021/09/13 13:26:17;;;;;;;0.40;0.40;;;;;;;;;;5022684;28;20124;-63
2021/09/13 13:28:44;;;;;;;0.57;0.30;;;;;;;;;;5021403;28;20117;-63
2021/09/13 13:31:11;;;;;;;1.02;0.57;;;;;;;;;;5023672;28;20054;-63
2021/09/13 13:33:39;;;;;;;0.22;0.22;;;;;;;;;;5026887;28;20061;-63
2021/09/13 13:36:05;;;;;;;3.03;0.40;;;;;;;;;;5022685;28;20176;-63
2021/09/13 13:38:32;;;;;;;0.70;0.40;;;;;;;;;;5018361;28;20797;-63
2021/09/13 13:40:59;;;;;;;0.32;0.32;;;;;;;;;;5023520;28;20050;-63
2021/09/13 13:43:26;;;;;;;0.73;0.35;;;;;;;;;;5019524;28;20141;-63
2021/09/13 13:45:52;;;;;;;0.75;0.32;;;;;;;;;;5020529;28;20128;-63
2021/09/13 13:48:20;;;;;;;0.20;0.20;;;;;;;;;;5019589;28;20129;-63
2021/09/13 13:50:46;;;;;;;1.48;0.98;;;;;;;;;;5024087;28;20443;-63
2021/09/13 13:53:13;;;;;;;0.40;0.30;;;;;;;;;;5025793;28;20081;-63
2021/09/13 13:55:40;;;;;;;0.30;0.30;;;;;;;;;;5026084;28;20111;-63
2021/09/13 13:58:06;;;;;;;0.20;0.20;;;;;;;;;;5023483;28;20077;-63
2021/09/13 14:00:33;;;;;;;0.28;0.28;;;;;;;;;;5030054;28;20111;-63
2021/09/13 14:03:00;;;;;;;0.22;0.22;;;;;;;;;;5021758;28;20050;-63
2021/09/13 14:05:27;;;;;;;0.20;0.20;;;;;;;;;;5024476;28;20596;-63
2021/09/13 14:07:53;;;;;;;0.80;0.20;;;;;;;;;;5023483;28;20081;-63
2021/09/13 14:10:20;;;;;;;1.02;0.70;;;;;;;;;;5028774;28;20534;-63
2021/09/13 14:12:47;;;;;;;0.43;0.37;;;;;;;;;;5029124;28;20049;-63
2021/09/13 14:15:14;;;;;;;2.28;0.40;;;;;;;;;;5022419;28;20136;-63
2021/09/13 14:17:41;;;;;;;1.42;0.50;;;;;;;;;;5025239;28;20119;-62
2021/09/13 14:20:08;;;;;;;0.63;0.45;;;;;;;;;;5022216;28;20088;-62
2021/09/13 14:22:34;;;;;;;1.30;0.38;;;;;;;;;;5022878;28;20086;-62
2021/09/13 14:25:02;;;;;;;0.55;0.50;;;;;;;;;;5026151;28;20061;-62
2021/09/13 14:27:28;;;;;;;0.65;0.47;;;;;;;;;;5023880;28;20419;-62
2021/09/13 14:29:55;;;;;;;1.30;0.30;;;;;;;;;;5022117;28;20501;-62
2021/09/13 14:32:22;;;;;;;12.05;4.50;;;;;;;;;;5024525;28;20100;-62
2021/09/13 14:34:48;;;;;;;0.65;0.30;;;;;;;;;;5024476;28;20081;-62
2021/09/13 14:37:15;;;;;;;12.45;4.32;;;;;;;;;;5027567;28;20136;-62
2021/09/13 14:39:42;;;;;;;0.57;0.32;;;;;;;;;;5020297;28;20273;-62
2021/09/13 14:42:08;;;;;;;5.40;2.25;;;;;;;;;;5023558;28;20088;-62
2021/09/13 14:44:35;;;;;;;7.65;2.15;;;;;;;;;;5019365;28;20116;-62
2021/09/13 14:47:02;;;;;;;1.00;0.45;;;;;;;;;;5018293;28;20853;-62
2021/09/13 14:49:28;;;;;;;0.40;0.40;;;;;;;;;;5018518;28;20081;-62
2021/09/13 14:51:55;;;;;;;0.70;0.30;;;;;;;;;;5016810;28;20095;-62
2021/09/13 14:54:23;;;;;;;0.88;0.40;;;;;;;;;;5021668;28;20053;-62
2021/09/13 14:56:49;;;;;;;2.05;0.40;;;;;;;;;;5019280;28;20111;-62